createdAt,value
2018-04-24T13:52:08.810Z,29.10
2018-04-24T13:53:08.980Z,29.52
2018-04-24T13:54:08.747Z,29.30
2018-04-24T13:55:08.848Z,30.11
2018-04-24T13:56:08.762Z,29.43
2018-04-24T13:57:08.789Z,28.90
2018-04-24T13:58:08.782Z,28.23
2018-04-24T13:59:08.783Z,27.47
2018-04-24T14:00:08.770Z,27.58
2018-04-24T14:01:08.786Z,27.28
2018-04-24T14:02:08.790Z,27.44
2018-04-24T14:03:08.955Z,27.60
2018-04-24T14:04:08.810Z,28.64
2018-04-24T14:05:08.823Z,28.75
2018-04-24T14:06:08.830Z,27.58
2018-04-24T14:07:08.846Z,29.03
2018-04-24T14:08:08.862Z,28.47
2018-04-24T14:09:08.855Z,28.75
2018-04-24T14:10:08.963Z,28.59
2018-04-24T14:11:08.874Z,29.06
2018-04-24T14:12:09.005Z,28.68
2018-04-24T14:13:09.143Z,29.59
2018-04-24T14:14:08.943Z,29.62
2018-04-24T14:15:08.939Z,29.69
2018-04-24T14:16:08.948Z,29.89
2018-04-24T14:17:09.251Z,30.51
2018-04-24T14:18:08.948Z,31.00
2018-04-24T14:19:08.958Z,30.65
2018-04-24T14:20:08.964Z,29.39
2018-04-24T14:21:09.003Z,28.46
2018-04-24T14:22:09.207Z,27.55
2018-04-24T14:23:09.012Z,27.33
2018-04-24T14:24:09.039Z,27.66
2018-04-24T14:25:09.012Z,27.86
2018-04-24T14:26:09.052Z,28.60
2018-04-24T14:27:09.035Z,28.72
2018-04-24T14:28:09.072Z,29.00
2018-04-24T14:29:09.053Z,29.37
2018-04-24T14:30:09.266Z,29.46
2018-04-24T14:31:09.078Z,30.16
2018-04-24T14:32:09.088Z,29.49
2018-04-24T14:33:09.101Z,29.35
2018-04-24T14:34:09.103Z,29.71
2018-04-24T14:35:09.118Z,28.89
2018-04-24T14:36:09.194Z,27.60
2018-04-24T14:37:09.223Z,27.79
2018-04-24T14:38:09.278Z,29.46
2018-04-24T14:39:09.214Z,30.38
2018-04-24T14:40:09.189Z,30.61
2018-04-24T14:41:09.198Z,31.20
2018-04-24T14:42:09.376Z,30.33
2018-04-24T14:43:09.201Z,30.48
2018-04-24T14:44:09.209Z,29.03
2018-04-24T14:45:09.217Z,29.53
2018-04-24T14:46:09.225Z,28.13
2018-04-24T14:47:09.239Z,28.47
2018-04-24T14:48:09.257Z,28.06
2018-04-24T14:49:09.264Z,28.65
2018-04-24T14:50:09.294Z,28.65
2018-04-24T14:51:09.281Z,28.89
2018-04-24T14:52:09.322Z,29.39
2018-04-24T14:53:09.310Z,29.05
2018-04-24T14:54:09.308Z,29.16
2018-04-24T14:55:09.385Z,29.42
2018-04-24T14:56:09.340Z,29.65
2018-04-24T14:57:10.696Z,29.10
2018-04-24T14:58:11.426Z,28.31
2018-04-24T14:59:09.371Z,29.62
2018-04-24T15:00:09.377Z,28.45
2018-04-24T15:01:09.478Z,29.61
2018-04-24T15:02:09.512Z,29.68
2018-04-24T15:03:09.430Z,28.94
2018-04-24T15:04:09.425Z,27.91
2018-04-24T15:05:09.436Z,28.64
2018-04-24T15:06:09.445Z,28.31
2018-04-24T15:07:09.543Z,29.30
2018-04-24T15:08:09.657Z,29.43
2018-04-24T15:09:09.478Z,30.03
2018-04-24T15:10:09.484Z,30.67
2018-04-24T15:11:09.498Z,30.05
2018-04-24T15:12:09.509Z,29.49
2018-04-24T15:13:09.539Z,30.31
2018-04-24T15:14:09.533Z,30.05
2018-04-24T15:15:09.556Z,29.61
2018-04-24T15:16:09.553Z,29.15
2018-04-24T15:17:09.700Z,28.70
2018-04-24T15:18:09.846Z,27.81
2018-04-24T15:19:09.645Z,26.63
2018-04-24T15:20:09.605Z,26.44
2018-04-24T15:21:09.625Z,26.70
2018-04-24T15:22:09.641Z,26.51
2018-04-24T15:23:09.651Z,25.88
2018-04-24T15:24:09.645Z,26.74
2018-04-24T15:25:09.649Z,26.44
2018-04-24T15:26:09.693Z,27.23
2018-04-24T15:27:09.700Z,27.52
2018-04-24T15:28:09.771Z,25.91
2018-04-24T15:29:09.775Z,26.98
2018-04-24T15:30:09.697Z,27.19
2018-04-24T15:31:09.738Z,26.46
2018-04-24T15:32:09.728Z,26.79
2018-04-24T15:33:09.759Z,27.85
2018-04-24T15:34:09.738Z,26.70
2018-04-24T15:35:09.754Z,27.38
2018-04-24T15:36:09.827Z,27.64
2018-04-24T15:37:09.787Z,27.08
2018-04-24T15:38:09.802Z,27.15
2018-04-24T15:39:09.788Z,27.10
2018-04-24T15:40:09.798Z,26.85
2018-04-24T15:41:09.816Z,27.66
2018-04-24T15:42:09.812Z,26.78
2018-04-24T15:43:09.824Z,27.29
2018-04-24T15:44:09.829Z,26.53
2018-04-24T15:45:09.876Z,26.30
2018-04-24T15:46:09.850Z,26.61
2018-04-24T15:47:09.860Z,27.07
2018-04-24T15:48:09.892Z,27.60
2018-04-24T15:49:09.914Z,27.38
2018-04-24T15:50:09.907Z,27.82
2018-04-24T15:51:09.901Z,27.82
2018-04-24T15:52:09.923Z,26.78
2018-04-24T15:53:09.917Z,26.37
2018-04-24T15:54:09.926Z,26.39
2018-04-24T15:55:09.937Z,26.31
2018-04-24T15:56:09.985Z,26.46
2018-04-24T15:57:09.955Z,26.16
2018-04-24T15:58:09.982Z,26.52
2018-04-24T15:59:09.973Z,26.06
2018-04-24T16:00:09.986Z,25.93
2018-04-24T16:01:10.081Z,26.29
2018-04-24T16:02:10.019Z,27.05
2018-04-24T16:03:10.059Z,26.55
2018-04-24T16:04:10.062Z,27.03
2018-04-24T16:05:10.036Z,27.61
2018-04-24T16:06:10.167Z,28.53
2018-04-24T16:07:10.149Z,28.00
2018-04-24T16:08:10.077Z,27.83
2018-04-24T16:09:10.108Z,28.12
2018-04-24T16:10:10.100Z,27.66
2018-04-24T16:11:10.083Z,27.91
2018-04-24T16:12:10.095Z,28.08
2018-04-24T16:13:10.122Z,28.30
2018-04-24T16:14:10.138Z,27.97
2018-04-24T16:15:10.125Z,28.10
2018-04-24T16:16:10.141Z,27.48
2018-04-24T16:17:10.142Z,27.57
2018-04-24T16:18:10.175Z,26.68
2018-04-24T16:19:10.212Z,26.78
2018-04-24T16:20:10.163Z,27.15
2018-04-24T16:21:10.173Z,26.18
2018-04-24T16:22:10.184Z,26.30
2018-04-24T16:23:10.201Z,26.71
2018-04-24T16:24:10.275Z,26.06
2018-04-24T16:25:10.210Z,25.96
2018-04-24T16:26:10.221Z,25.51
2018-04-24T16:27:10.263Z,25.93
2018-04-24T16:28:10.263Z,26.13
2018-04-24T16:29:10.241Z,25.91
2018-04-24T16:30:10.329Z,25.89
2018-04-24T16:31:10.258Z,25.86
2018-04-24T16:32:10.274Z,25.61
2018-04-24T16:33:10.279Z,25.98
2018-04-24T16:34:10.278Z,26.11
2018-04-24T16:35:10.374Z,26.06
2018-04-24T16:36:10.297Z,25.80
2018-04-24T16:37:10.304Z,25.83
2018-04-24T16:38:10.340Z,25.24
2018-04-24T16:39:10.321Z,25.70
2018-04-24T16:40:10.330Z,26.08
2018-04-24T16:41:10.498Z,25.74
2018-04-24T16:42:10.349Z,25.70
2018-04-24T16:43:10.373Z,25.58
2018-04-24T16:44:10.374Z,25.93
2018-04-24T16:45:10.370Z,26.44
2018-04-24T16:46:10.435Z,26.16
2018-04-24T16:47:10.382Z,26.16
2018-04-24T16:48:10.426Z,26.56
2018-04-24T16:49:10.398Z,25.86
2018-04-24T16:50:10.432Z,26.89
2018-04-24T16:51:10.422Z,26.76
2018-04-24T16:52:10.437Z,26.67
2018-04-24T16:53:10.436Z,26.42
2018-04-24T16:54:10.437Z,26.16
2018-04-24T16:55:10.445Z,25.86
2018-04-24T16:56:10.538Z,25.74
2018-04-24T16:57:10.465Z,25.73
2018-04-24T16:58:10.495Z,26.03
2018-04-24T16:59:10.711Z,26.08
2018-04-24T17:00:10.596Z,26.24
2018-04-24T17:01:10.497Z,26.31
2018-04-24T17:02:10.704Z,26.15
2018-04-24T17:03:10.552Z,25.76
2018-04-24T17:04:10.794Z,25.46
2018-04-24T17:05:10.778Z,25.80
2018-04-24T17:06:10.552Z,25.95
2018-04-24T17:07:10.544Z,25.80
2018-04-24T17:08:11.071Z,25.25
2018-04-24T17:09:10.620Z,25.88
2018-04-24T17:10:10.649Z,25.48
2018-04-24T17:11:10.571Z,25.01
2018-04-24T17:12:10.660Z,24.81
2018-04-24T17:13:10.615Z,24.85
2018-04-24T17:14:10.606Z,24.82
2018-04-24T17:15:10.754Z,24.86
2018-04-24T17:16:10.609Z,24.82
2018-04-24T17:17:10.616Z,24.65
2018-04-24T17:18:10.628Z,24.78
2018-04-24T17:20:34.807Z,24.96
2018-04-24T17:21:34.912Z,25.15
2018-04-24T17:23:29.518Z,25.07
2018-04-24T17:24:29.203Z,25.03
2018-04-24T17:25:29.216Z,24.77
2018-04-24T17:26:29.260Z,24.32
2018-04-24T17:27:29.513Z,24.31
2018-04-24T17:28:29.260Z,24.31
2018-04-24T17:29:29.183Z,23.82
2018-04-24T17:30:29.210Z,23.71
2018-04-24T17:31:29.439Z,23.39
2018-04-24T17:32:29.328Z,23.13
2018-04-24T17:33:29.214Z,22.84
2018-04-24T17:34:30.294Z,22.62
2018-04-24T17:35:29.388Z,22.34
2018-04-24T17:36:29.234Z,22.16
2018-04-24T17:37:29.243Z,22.08
2018-04-24T17:38:29.426Z,21.68
2018-04-24T17:39:29.240Z,21.59
2018-04-24T17:40:29.274Z,21.53
2018-04-24T17:41:29.247Z,21.37
2018-04-24T17:42:29.309Z,21.25
2018-04-24T17:43:29.275Z,21.07
2018-04-24T17:44:29.279Z,20.89
2018-04-24T17:45:29.306Z,20.67
2018-04-24T17:46:29.261Z,20.60
2018-04-24T17:47:29.293Z,20.49
2018-04-24T17:48:29.310Z,20.42
2018-04-24T17:50:52.547Z,20.15
2018-04-24T17:51:52.479Z,19.94
2018-04-24T17:52:52.391Z,19.87
2018-04-24T17:53:52.440Z,19.78
2018-04-24T17:54:52.419Z,19.67
2018-04-24T17:55:52.388Z,19.56
2018-04-24T17:56:52.417Z,19.56
2018-04-24T17:59:16.377Z,19.20
2018-04-24T18:01:39.516Z,18.96
2018-04-24T18:02:39.526Z,18.89
2018-04-24T18:03:39.483Z,18.83
2018-04-24T18:04:39.521Z,18.73
2018-04-24T18:05:39.484Z,18.60
2018-04-24T18:06:39.634Z,18.48
2018-04-24T18:07:39.545Z,18.42
2018-04-24T18:08:39.589Z,18.37
2018-04-24T18:09:39.494Z,18.33
2018-04-24T18:10:39.495Z,18.37
2018-04-24T18:11:39.498Z,18.31
2018-04-24T18:12:39.476Z,18.26
2018-04-24T18:13:40.484Z,18.21
2018-04-24T18:14:39.476Z,18.21
2018-04-24T18:15:39.484Z,18.08
2018-04-24T18:16:40.516Z,18.02
2018-04-24T18:17:39.513Z,17.93
2018-04-24T18:18:39.459Z,17.86
2018-04-24T18:19:39.473Z,17.72
2018-04-24T18:20:39.489Z,17.75
2018-04-24T18:21:39.584Z,17.68
2018-04-24T18:22:39.496Z,17.66
2018-04-24T18:23:39.530Z,17.63
2018-04-24T18:24:39.457Z,17.44
2018-04-24T18:25:39.504Z,17.46
2018-04-24T18:26:40.489Z,17.34
2018-04-24T18:27:39.474Z,17.27
2018-04-24T18:28:39.468Z,17.23
2018-04-24T18:29:39.450Z,17.16
2018-04-24T18:30:39.450Z,17.07
2018-04-24T18:31:39.593Z,17.10
2018-04-24T18:32:39.450Z,17.04
2018-04-24T18:33:39.480Z,16.94
2018-04-24T18:34:39.548Z,17.01
2018-04-24T18:35:39.512Z,16.82
2018-04-24T18:36:39.463Z,16.79
2018-04-24T18:37:39.461Z,16.69
2018-04-24T18:38:40.528Z,16.61
2018-04-24T18:39:39.466Z,16.66
2018-04-24T18:40:39.496Z,16.55
2018-04-24T18:41:39.446Z,16.47
2018-04-24T18:42:39.529Z,16.54
2018-04-24T18:43:39.572Z,16.37
2018-04-24T18:44:39.443Z,16.37
2018-04-24T18:45:39.474Z,16.34
2018-04-24T18:46:39.496Z,16.34
2018-04-24T18:47:39.516Z,16.26
2018-04-24T18:48:39.467Z,16.31
2018-04-24T18:49:39.505Z,16.24
2018-04-24T18:50:39.490Z,16.06
2018-04-24T18:51:39.484Z,16.10
2018-04-24T18:52:39.501Z,16.03
2018-04-24T18:53:39.447Z,16.00
2018-04-24T18:54:39.443Z,15.98
2018-04-24T18:55:39.566Z,15.99
2018-04-24T18:56:39.576Z,15.92
2018-04-24T18:57:48.707Z,15.72
2018-04-24T18:58:39.892Z,15.76
2018-04-24T18:59:40.416Z,15.70
2018-04-24T19:00:39.889Z,15.70
2018-04-24T19:01:39.448Z,15.65
2018-04-24T19:02:40.792Z,15.52
2018-04-24T19:03:39.582Z,15.55
2018-04-24T19:04:39.562Z,15.65
2018-04-24T19:05:50.207Z,15.57
2018-04-24T19:07:34.294Z,15.47
2018-04-24T19:08:34.295Z,15.44
2018-04-24T19:09:33.223Z,15.36
2018-04-24T19:10:33.184Z,15.35
2018-04-24T19:12:56.441Z,15.22
2018-04-24T19:13:56.384Z,15.17
2018-04-24T19:16:19.190Z,15.11
2018-04-24T19:17:19.324Z,14.96
2018-04-24T19:18:19.387Z,15.04
2018-04-24T19:19:19.242Z,14.93
2018-04-24T19:20:19.318Z,14.86
2018-04-24T19:21:19.180Z,14.85
2018-04-24T19:22:18.927Z,14.82
2018-04-24T19:23:18.950Z,14.81
2018-04-24T19:24:18.926Z,14.77
2018-04-24T19:25:18.997Z,14.73
2018-04-24T19:26:18.961Z,14.68
2018-04-24T19:27:18.921Z,14.59
2018-04-24T19:28:19.136Z,14.63
2018-04-24T19:29:18.921Z,14.67
2018-04-24T19:30:18.988Z,14.52
2018-04-24T19:31:18.964Z,14.53
2018-04-24T19:32:18.944Z,14.48
2018-04-24T19:33:18.943Z,14.40
2018-04-24T19:34:19.017Z,14.36
2018-04-24T19:35:18.917Z,14.33
2018-04-24T19:36:18.963Z,14.28
2018-04-24T19:37:18.929Z,14.26
2018-04-24T19:38:18.934Z,14.26
2018-04-24T19:39:18.929Z,14.20
2018-04-24T19:40:18.933Z,14.16
2018-04-24T19:41:19.008Z,14.18
2018-04-24T19:42:18.923Z,14.04
2018-04-24T19:44:52.338Z,14.07
2018-04-24T19:47:05.558Z,14.03
2018-04-24T19:48:05.505Z,13.87
2018-04-24T19:50:42.928Z,13.91
2018-04-24T19:53:07.075Z,13.76
2018-04-24T19:53:51.962Z,13.70
2018-04-24T19:54:51.773Z,13.65
2018-04-24T19:57:15.865Z,13.52
2018-04-24T19:59:37.914Z,13.47
2018-04-24T20:00:37.767Z,13.42
2018-04-24T20:01:37.532Z,13.36
2018-04-24T20:04:00.950Z,13.46
2018-04-24T20:06:24.703Z,13.37
2018-04-24T20:07:24.917Z,13.40
2018-04-24T20:08:25.570Z,13.37
2018-04-24T20:09:33.743Z,13.31
2018-04-24T20:11:19.330Z,13.28
2018-04-24T20:12:19.145Z,13.21
2018-04-24T20:13:19.416Z,13.28
2018-04-24T20:14:19.473Z,13.21
2018-04-24T20:15:18.989Z,13.23
2018-04-24T20:16:18.985Z,13.23
2018-04-24T20:17:18.985Z,13.23
2018-04-24T20:18:19.086Z,13.17
2018-04-24T20:20:42.499Z,13.09
2018-04-24T20:21:42.100Z,13.12
2018-04-24T20:24:07.574Z,13.05
2018-04-24T20:25:06.797Z,12.98
2018-04-24T20:26:06.805Z,12.93
2018-04-24T20:27:06.969Z,13.03
2018-04-24T20:29:40.359Z,12.98
2018-04-24T20:31:54.874Z,12.69
2018-04-24T20:33:05.723Z,12.73
2018-04-24T20:34:58.726Z,12.66
2018-04-24T20:35:48.385Z,12.63
2018-04-24T20:36:48.504Z,12.48
2018-04-24T20:39:11.435Z,12.53
2018-04-24T20:40:11.408Z,12.50
2018-04-24T20:42:44.871Z,12.51
2018-04-24T20:44:57.858Z,12.47
2018-04-24T20:47:20.555Z,12.65
2018-04-24T20:48:20.650Z,12.48
2018-04-24T20:50:53.171Z,12.50
2018-04-24T20:51:43.753Z,12.47
2018-04-24T20:54:06.963Z,12.66
2018-04-24T20:55:06.892Z,12.62
2018-04-24T20:56:06.973Z,12.48
2018-04-24T20:58:39.778Z,12.51
2018-04-24T20:59:29.780Z,12.50
2018-04-24T21:02:02.814Z,12.45
2018-04-24T21:02:52.048Z,12.44
2018-04-24T21:03:51.723Z,12.32
2018-04-24T21:04:51.754Z,12.33
2018-04-24T21:05:52.123Z,12.36
2018-04-24T21:06:51.769Z,12.33
2018-04-24T21:07:51.687Z,12.29
2018-04-24T21:08:51.674Z,12.33
2018-04-24T21:09:51.611Z,12.35
2018-04-24T21:10:51.635Z,12.32
2018-04-24T21:11:51.605Z,12.23
2018-04-24T21:12:51.610Z,12.23
2018-04-24T21:13:51.623Z,12.21
2018-04-24T21:16:14.842Z,12.12
2018-04-24T21:17:22.578Z,12.15
2018-04-24T21:18:15.113Z,12.08
2018-04-24T21:20:47.234Z,12.14
2018-04-24T21:21:36.983Z,12.14
2018-04-24T21:24:00.088Z,12.05
2018-04-24T21:26:34.049Z,12.00
2018-04-24T21:27:23.936Z,11.91
2018-04-24T21:28:24.152Z,11.93
2018-04-24T21:30:46.935Z,11.86
2018-04-24T21:31:46.881Z,11.78
2018-04-24T21:34:09.989Z,11.71
2018-04-24T21:36:41.242Z,11.73
2018-04-24T21:38:56.600Z,11.58
2018-04-24T21:41:19.262Z,11.62
2018-04-24T21:42:19.273Z,11.56
2018-04-24T21:44:52.696Z,11.49
2018-04-24T21:47:15.414Z,11.49
2018-04-24T21:49:38.972Z,11.53
2018-04-24T21:50:28.755Z,11.55
2018-04-24T21:52:51.568Z,11.49
2018-04-24T21:53:51.553Z,11.37
2018-04-24T21:54:51.454Z,11.40
2018-04-24T21:55:51.544Z,11.44
2018-04-24T21:57:01.162Z,11.33
2018-04-24T21:58:56.397Z,11.35
2018-04-24T21:59:45.956Z,11.27
2018-04-24T22:00:46.268Z,11.33
2018-04-24T22:03:19.937Z,11.20
2018-04-24T22:04:08.874Z,11.27
2018-04-24T22:06:32.170Z,11.26
2018-04-24T22:07:31.966Z,11.15
2018-04-24T22:08:32.081Z,11.23
2018-04-24T22:11:05.277Z,11.19
2018-04-24T22:13:18.194Z,11.10
2018-04-24T22:14:18.450Z,11.16
2018-04-24T22:16:42.364Z,11.07
2018-04-24T22:17:42.511Z,10.98
2018-04-24T22:18:42.322Z,11.05
2018-04-24T22:19:42.449Z,11.05
2018-04-24T22:22:04.624Z,10.92
2018-04-24T22:24:27.605Z,10.95
2018-04-24T22:26:50.378Z,10.83
2018-04-24T22:29:23.708Z,10.83
2018-04-24T22:30:13.463Z,10.80
2018-04-24T22:31:13.259Z,10.68
2018-04-24T22:32:13.184Z,10.72
2018-04-24T22:33:13.391Z,10.65
2018-04-24T22:35:46.400Z,10.68
2018-04-24T22:37:59.566Z,10.72
2018-04-24T22:40:33.786Z,10.62
2018-04-24T22:41:22.788Z,10.61
2018-04-24T22:43:57.141Z,10.57
2018-04-24T22:44:46.461Z,10.51
2018-04-24T22:47:09.553Z,10.51
2018-04-24T22:49:43.452Z,10.41
2018-04-24T22:50:32.652Z,10.42
2018-04-24T22:52:57.560Z,10.38
2018-04-24T22:55:19.991Z,10.34
2018-04-24T22:56:19.700Z,10.38
2018-04-24T22:57:20.598Z,10.34
2018-04-24T22:58:20.044Z,10.38
2018-04-24T23:00:41.622Z,10.36
2018-04-24T23:03:04.201Z,10.33
2018-04-24T23:04:03.788Z,10.23
2018-04-24T23:06:38.291Z,10.21
2018-04-24T23:07:26.807Z,10.25
2018-04-24T23:09:50.282Z,10.17
2018-04-24T23:12:12.978Z,10.10
2018-04-24T23:13:13.001Z,10.15
2018-04-24T23:15:46.339Z,10.15
2018-04-24T23:16:36.253Z,10.03
2018-04-24T23:18:59.203Z,10.06
2018-04-24T23:21:31.047Z,9.99
2018-04-24T23:22:22.325Z,9.99
2018-04-24T23:23:30.920Z,9.97
2018-04-24T23:25:17.627Z,9.94
2018-04-24T23:26:16.595Z,9.91
2018-04-24T23:28:39.643Z,9.90
2018-04-24T23:29:39.488Z,9.90
2018-04-24T23:30:39.487Z,9.90
2018-04-24T23:31:39.571Z,9.81
2018-04-24T23:34:02.920Z,9.81
2018-04-24T23:35:02.852Z,9.80
2018-04-24T23:37:35.722Z,9.77
2018-04-24T23:38:26.514Z,9.77
2018-04-24T23:40:47.711Z,9.76
2018-04-24T23:41:47.538Z,9.64
2018-04-24T23:44:18.839Z,9.54
2018-04-24T23:45:12.059Z,9.55
2018-04-24T23:47:44.176Z,9.64
2018-04-24T23:48:34.022Z,9.54
2018-04-24T23:50:57.042Z,9.55
2018-04-24T23:53:20.261Z,9.54
2018-04-24T23:54:20.206Z,9.54
2018-04-24T23:55:20.120Z,9.59
2018-04-24T23:57:52.965Z,9.56
2018-04-24T23:58:50.923Z,9.52
2018-04-24T23:59:42.211Z,9.40
